sensor_id;sensor_type;location;lat;lon;timestamp;pressure;altitude;pressure_sealevel;temperature;humidity
27685;BME280;46113;50.130;8.526;2023-04-27T00:01:37;99309.81;;;3.36;57.88
27685;BME280;46113;50.130;8.526;2023-04-27T00:04:04;99314.13;;;3.37;57.45
27685;BME280;46113;50.130;8.526;2023-04-27T00:06:33;99307.19;;;3.36;57.84
27685;BME280;46113;50.130;8.526;2023-04-27T00:09:00;99301.19;;;3.32;57.76
27685;BME280;46113;50.130;8.526;2023-04-27T00:11:26;99301.41;;;3.25;57.43
27685;BME280;46113;50.130;8.526;2023-04-27T00:13:53;99304.34;;;2.77;59.23
27685;BME280;46113;50.130;8.526;2023-04-27T00:16:20;99299.50;;;2.97;58.36
27685;BME280;46113;50.130;8.526;2023-04-27T00:18:47;99287.09;;;3.05;57.77
27685;BME280;46113;50.130;8.526;2023-04-27T00:21:14;99292.94;;;3.15;57.42
27685;BME280;46113;50.130;8.526;2023-04-27T00:23:41;99294.25;;;2.98;57.85
27685;BME280;46113;50.130;8.526;2023-04-27T00:26:07;99291.22;;;3.14;57.75
27685;BME280;46113;50.130;8.526;2023-04-27T00:28:34;99288.66;;;3.12;57.88
27685;BME280;46113;50.130;8.526;2023-04-27T00:31:01;99286.00;;;3.14;58.15
27685;BME280;46113;50.130;8.526;2023-04-27T00:33:30;99284.25;;;3.14;58.57
27685;BME280;46113;50.130;8.526;2023-04-27T00:36:00;99282.34;;;3.21;58.55
27685;BME280;46113;50.130;8.526;2023-04-27T00:38:28;99277.88;;;3.25;58.46
27685;BME280;46113;50.130;8.526;2023-04-27T00:41:05;99276.47;;;3.11;58.78
27685;BME280;46113;50.130;8.526;2023-04-27T00:43:40;99274.59;;;3.16;58.58
27685;BME280;46113;50.130;8.526;2023-04-27T00:46:08;99277.91;;;3.23;58.53
27685;BME280;46113;50.130;8.526;2023-04-27T00:48:36;99268.50;;;3.16;58.47
27685;BME280;46113;50.130;8.526;2023-04-27T00:51:04;99271.75;;;3.26;58.49
27685;BME280;46113;50.130;8.526;2023-04-27T00:53:33;99267.75;;;3.11;58.60
27685;BME280;46113;50.130;8.526;2023-04-27T00:55:59;99271.19;;;3.14;59.02
27685;BME280;46113;50.130;8.526;2023-04-27T00:58:27;99270.72;;;2.98;59.17
27685;BME280;46113;50.130;8.526;2023-04-27T01:00:54;99275.28;;;2.90;59.77
27685;BME280;46113;50.130;8.526;2023-04-27T01:03:22;99270.56;;;2.70;60.24
27685;BME280;46113;50.130;8.526;2023-04-27T01:05:49;99274.59;;;2.47;59.81
27685;BME280;46113;50.130;8.526;2023-04-27T01:08:16;99278.50;;;2.28;59.40
27685;BME280;46113;50.130;8.526;2023-04-27T01:10:43;99278.44;;;2.68;59.16
27685;BME280;46113;50.130;8.526;2023-04-27T01:13:10;99274.78;;;2.75;58.72
27685;BME280;46113;50.130;8.526;2023-04-27T01:15:37;99275.31;;;2.53;58.78
27685;BME280;46113;50.130;8.526;2023-04-27T01:18:08;99273.94;;;2.38;59.47
27685;BME280;46113;50.130;8.526;2023-04-27T01:20:35;99280.19;;;2.31;58.74
27685;BME280;46113;50.130;8.526;2023-04-27T01:23:02;99280.31;;;2.63;58.83
27685;BME280;46113;50.130;8.526;2023-04-27T01:25:30;99281.69;;;2.78;58.56
27685;BME280;46113;50.130;8.526;2023-04-27T01:28:00;99290.53;;;2.72;58.68
27685;BME280;46113;50.130;8.526;2023-04-27T01:30:28;99287.75;;;2.78;58.51
27685;BME280;46113;50.130;8.526;2023-04-27T01:32:57;99289.69;;;2.70;59.90
27685;BME280;46113;50.130;8.526;2023-04-27T01:35:24;99284.66;;;2.62;60.26
27685;BME280;46113;50.130;8.526;2023-04-27T01:37:58;99281.09;;;2.66;59.48
27685;BME280;46113;50.130;8.526;2023-04-27T01:40:25;99281.03;;;2.33;60.99
27685;BME280;46113;50.130;8.526;2023-04-27T01:42:52;99290.19;;;2.51;59.77
27685;BME280;46113;50.130;8.526;2023-04-27T01:45:19;99291.13;;;2.47;59.43
27685;BME280;46113;50.130;8.526;2023-04-27T01:47:45;99298.16;;;2.06;59.86
27685;BME280;46113;50.130;8.526;2023-04-27T01:50:12;99301.88;;;1.95;58.67
27685;BME280;46113;50.130;8.526;2023-04-27T01:52:39;99298.78;;;2.17;59.69
27685;BME280;46113;50.130;8.526;2023-04-27T01:55:06;99298.66;;;1.82;59.17
27685;BME280;46113;50.130;8.526;2023-04-27T01:57:33;99297.66;;;1.88;59.15
27685;BME280;46113;50.130;8.526;2023-04-27T02:00:00;99299.19;;;1.56;60.16
27685;BME280;46113;50.130;8.526;2023-04-27T02:02:45;99309.94;;;1.83;59.23
27685;BME280;46113;50.130;8.526;2023-04-27T02:05:13;99316.13;;;1.79;58.81
27685;BME280;46113;50.130;8.526;2023-04-27T02:07:39;99322.59;;;2.03;58.98
27685;BME280;46113;50.130;8.526;2023-04-27T02:10:06;99318.22;;;2.04;59.23
27685;BME280;46113;50.130;8.526;2023-04-27T02:12:33;99321.53;;;2.12;59.06
27685;BME280;46113;50.130;8.526;2023-04-27T02:15:01;99320.44;;;2.21;59.11
27685;BME280;46113;50.130;8.526;2023-04-27T02:17:29;99319.63;;;2.20;59.77
27685;BME280;46113;50.130;8.526;2023-04-27T02:19:56;99319.56;;;2.22;61.35
27685;BME280;46113;50.130;8.526;2023-04-27T02:22:23;99319.31;;;2.33;60.31
27685;BME280;46113;50.130;8.526;2023-04-27T02:24:50;99317.47;;;2.38;60.95
27685;BME280;46113;50.130;8.526;2023-04-27T02:27:17;99319.91;;;2.46;60.48
27685;BME280;46113;50.130;8.526;2023-04-27T02:29:44;99315.41;;;2.51;59.75
27685;BME280;46113;50.130;8.526;2023-04-27T02:32:11;99320.47;;;2.59;59.94
27685;BME280;46113;50.130;8.526;2023-04-27T02:34:38;99332.56;;;2.63;58.97
27685;BME280;46113;50.130;8.526;2023-04-27T02:37:05;99326.38;;;2.67;58.09
27685;BME280;46113;50.130;8.526;2023-04-27T02:39:32;99337.84;;;2.60;58.16
27685;BME280;46113;50.130;8.526;2023-04-27T02:41:59;99330.94;;;2.57;58.19
27685;BME280;46113;50.130;8.526;2023-04-27T02:44:25;99339.69;;;2.56;58.51
27685;BME280;46113;50.130;8.526;2023-04-27T02:46:52;99328.16;;;2.65;58.25
27685;BME280;46113;50.130;8.526;2023-04-27T02:49:20;99329.03;;;2.64;59.08
27685;BME280;46113;50.130;8.526;2023-04-27T02:51:48;99329.13;;;2.61;59.53
27685;BME280;46113;50.130;8.526;2023-04-27T02:54:15;99333.63;;;2.55;59.04
27685;BME280;46113;50.130;8.526;2023-04-27T02:56:42;99333.69;;;2.51;59.32
27685;BME280;46113;50.130;8.526;2023-04-27T02:59:10;99332.03;;;2.48;59.27
27685;BME280;46113;50.130;8.526;2023-04-27T03:01:37;99333.72;;;2.49;60.05
27685;BME280;46113;50.130;8.526;2023-04-27T03:04:04;99335.47;;;2.50;59.95
27685;BME280;46113;50.130;8.526;2023-04-27T03:06:31;99338.22;;;2.44;59.80
27685;BME280;46113;50.130;8.526;2023-04-27T03:08:58;99337.91;;;2.58;60.06
27685;BME280;46113;50.130;8.526;2023-04-27T03:11:26;99339.88;;;2.47;59.75
27685;BME280;46113;50.130;8.526;2023-04-27T03:13:53;99341.66;;;2.46;59.99
27685;BME280;46113;50.130;8.526;2023-04-27T03:16:20;99338.94;;;2.51;59.53
27685;BME280;46113;50.130;8.526;2023-04-27T03:18:47;99337.22;;;2.50;59.50
27685;BME280;46113;50.130;8.526;2023-04-27T03:21:13;99339.22;;;2.38;59.65
27685;BME280;46113;50.130;8.526;2023-04-27T03:23:42;99336.16;;;2.57;59.05
27685;BME280;46113;50.130;8.526;2023-04-27T03:26:10;99331.75;;;2.61;57.96
27685;BME280;46113;50.130;8.526;2023-04-27T03:28:39;99330.16;;;2.53;56.99
27685;BME280;46113;50.130;8.526;2023-04-27T03:31:08;99319.63;;;2.58;57.86
27685;BME280;46113;50.130;8.526;2023-04-27T03:33:36;99318.63;;;2.62;57.98
27685;BME280;46113;50.130;8.526;2023-04-27T03:36:04;99311.88;;;2.53;58.39
27685;BME280;46113;50.130;8.526;2023-04-27T03:38:33;99316.31;;;2.50;58.57
27685;BME280;46113;50.130;8.526;2023-04-27T03:41:00;99315.56;;;2.45;58.85
27685;BME280;46113;50.130;8.526;2023-04-27T03:43:26;99315.38;;;2.52;59.57
27685;BME280;46113;50.130;8.526;2023-04-27T03:45:53;99317.09;;;2.53;59.71
27685;BME280;46113;50.130;8.526;2023-04-27T03:48:20;99312.00;;;2.49;59.89
27685;BME280;46113;50.130;8.526;2023-04-27T03:50:50;99312.72;;;2.55;59.67
27685;BME280;46113;50.130;8.526;2023-04-27T03:53:17;99323.22;;;2.52;59.36
27685;BME280;46113;50.130;8.526;2023-04-27T03:55:44;99311.88;;;2.53;59.31
27685;BME280;46113;50.130;8.526;2023-04-27T03:58:11;99316.25;;;2.53;59.55
27685;BME280;46113;50.130;8.526;2023-04-27T04:00:50;99308.47;;;2.51;59.96
27685;BME280;46113;50.130;8.526;2023-04-27T04:03:17;99312.78;;;2.52;59.91
27685;BME280;46113;50.130;8.526;2023-04-27T04:05:44;99313.41;;;2.62;59.85
27685;BME280;46113;50.130;8.526;2023-04-27T04:08:13;99316.88;;;2.63;59.90
27685;BME280;46113;50.130;8.526;2023-04-27T04:10:40;99316.25;;;2.53;59.63
27685;BME280;46113;50.130;8.526;2023-04-27T04:13:08;99316.16;;;2.56;60.19
27685;BME280;46113;50.130;8.526;2023-04-27T04:15:35;99318.19;;;2.45;61.19
27685;BME280;46113;50.130;8.526;2023-04-27T04:18:02;99312.66;;;2.57;60.67
27685;BME280;46113;50.130;8.526;2023-04-27T04:20:29;99318.25;;;2.41;60.63
27685;BME280;46113;50.130;8.526;2023-04-27T04:22:56;99324.31;;;2.44;59.71
27685;BME280;46113;50.130;8.526;2023-04-27T04:25:23;99326.72;;;2.53;59.42
27685;BME280;46113;50.130;8.526;2023-04-27T04:27:51;99324.78;;;2.60;59.30
27685;BME280;46113;50.130;8.526;2023-04-27T04:30:19;99338.84;;;2.55;60.09
27685;BME280;46113;50.130;8.526;2023-04-27T04:32:46;99338.00;;;2.53;59.68
27685;BME280;46113;50.130;8.526;2023-04-27T04:35:13;99342.38;;;2.53;60.11
27685;BME280;46113;50.130;8.526;2023-04-27T04:37:43;99347.88;;;2.40;60.59
27685;BME280;46113;50.130;8.526;2023-04-27T04:40:10;99343.78;;;2.66;60.40
27685;BME280;46113;50.130;8.526;2023-04-27T04:42:38;99347.78;;;2.45;60.71
27685;BME280;46113;50.130;8.526;2023-04-27T04:45:08;99354.25;;;2.66;59.96
27685;BME280;46113;50.130;8.526;2023-04-27T04:47:38;99360.41;;;2.64;58.80
27685;BME280;46113;50.130;8.526;2023-04-27T04:50:06;99359.78;;;2.90;59.32
27685;BME280;46113;50.130;8.526;2023-04-27T04:52:34;99355.44;;;3.24;58.56
27685;BME280;46113;50.130;8.526;2023-04-27T04:55:03;99348.91;;;3.41;57.67
27685;BME280;46113;50.130;8.526;2023-04-27T04:57:30;99354.53;;;3.62;56.51
27685;BME280;46113;50.130;8.526;2023-04-27T04:59:57;99352.53;;;3.70;55.50
27685;BME280;46113;50.130;8.526;2023-04-27T05:02:24;99355.56;;;3.86;55.24
27685;BME280;46113;50.130;8.526;2023-04-27T05:04:51;99344.97;;;3.91;54.72
27685;BME280;46113;50.130;8.526;2023-04-27T05:07:21;99352.44;;;4.05;54.88
27685;BME280;46113;50.130;8.526;2023-04-27T05:09:54;99348.44;;;3.91;55.49
27685;BME280;46113;50.130;8.526;2023-04-27T05:12:21;99349.34;;;3.90;54.89
27685;BME280;46113;50.130;8.526;2023-04-27T05:14:48;99359.03;;;3.86;54.82
27685;BME280;46113;50.130;8.526;2023-04-27T05:17:14;99353.44;;;4.00;54.91
27685;BME280;46113;50.130;8.526;2023-04-27T05:19:41;99357.22;;;4.20;53.13
27685;BME280;46113;50.130;8.526;2023-04-27T05:22:11;99358.31;;;4.42;53.09
27685;BME280;46113;50.130;8.526;2023-04-27T05:24:38;99357.97;;;4.24;53.77
27685;BME280;46113;50.130;8.526;2023-04-27T05:27:13;99362.28;;;4.55;53.53
27685;BME280;46113;50.130;8.526;2023-04-27T05:29:44;99360.44;;;4.86;52.12
27685;BME280;46113;50.130;8.526;2023-04-27T05:32:15;99357.22;;;4.77;51.98
27685;BME280;46113;50.130;8.526;2023-04-27T05:34:42;99358.28;;;4.99;51.69
27685;BME280;46113;50.130;8.526;2023-04-27T05:37:18;99360.13;;;4.68;52.37
27685;BME280;46113;50.130;8.526;2023-04-27T05:39:47;99367.75;;;4.76;51.56
27685;BME280;46113;50.130;8.526;2023-04-27T05:42:14;99366.97;;;4.99;51.97
27685;BME280;46113;50.130;8.526;2023-04-27T05:44:44;99357.31;;;5.01;51.86
27685;BME280;46113;50.130;8.526;2023-04-27T05:47:18;99362.34;;;5.07;51.53
27685;BME280;46113;50.130;8.526;2023-04-27T05:49:51;99356.16;;;5.10;50.77
27685;BME280;46113;50.130;8.526;2023-04-27T05:52:21;99358.28;;;5.24;51.29
27685;BME280;46113;50.130;8.526;2023-04-27T05:55:04;99364.75;;;5.66;49.99
27685;BME280;46113;50.130;8.526;2023-04-27T06:01:56;99363.84;;;5.42;51.80
27685;BME280;46113;50.130;8.526;2023-04-27T06:04:32;99359.94;;;6.03;50.10
27685;BME280;46113;50.130;8.526;2023-04-27T06:07:08;99361.56;;;6.30;48.88
27685;BME280;46113;50.130;8.526;2023-04-27T06:09:36;99368.63;;;5.56;49.57
27685;BME280;46113;50.130;8.526;2023-04-27T06:12:08;99363.84;;;5.15;49.50
27685;BME280;46113;50.130;8.526;2023-04-27T06:14:37;99366.09;;;5.78;49.45
27685;BME280;46113;50.130;8.526;2023-04-27T06:17:07;99374.28;;;5.43;49.72
27685;BME280;46113;50.130;8.526;2023-04-27T06:19:36;99377.03;;;5.90;48.55
27685;BME280;46113;50.130;8.526;2023-04-27T06:22:06;99368.06;;;6.88;47.30
27685;BME280;46113;50.130;8.526;2023-04-27T06:24:33;99367.19;;;6.20;47.29
27685;BME280;46113;50.130;8.526;2023-04-27T06:27:05;99380.66;;;6.57;47.36
27685;BME280;46113;50.130;8.526;2023-04-27T06:29:52;99376.09;;;7.49;46.05
27685;BME280;46113;50.130;8.526;2023-04-27T06:37:03;99378.97;;;6.99;44.83
27685;BME280;46113;50.130;8.526;2023-04-27T06:39:35;99392.34;;;6.72;45.87
27685;BME280;46113;50.130;8.526;2023-04-27T06:42:03;99386.16;;;6.73;46.09
27685;BME280;46113;50.130;8.526;2023-04-27T06:44:36;99388.09;;;7.96;45.04
27685;BME280;46113;50.130;8.526;2023-04-27T06:47:04;99385.81;;;8.07;43.48
27685;BME280;46113;50.130;8.526;2023-04-27T06:49:31;99396.09;;;7.53;43.27
27685;BME280;46113;50.130;8.526;2023-04-27T06:52:01;99395.50;;;7.46;45.03
27685;BME280;46113;50.130;8.526;2023-04-27T06:54:28;99391.75;;;7.10;45.35
27685;BME280;46113;50.130;8.526;2023-04-27T06:56:55;99388.91;;;7.56;44.13
27685;BME280;46113;50.130;8.526;2023-04-27T06:59:24;99389.53;;;7.42;44.01
27685;BME280;46113;50.130;8.526;2023-04-27T07:02:06;99391.63;;;7.76;43.07
27685;BME280;46113;50.130;8.526;2023-04-27T07:05:29;99384.63;;;7.95;42.42
27685;BME280;46113;50.130;8.526;2023-04-27T07:08:04;99389.44;;;8.05;41.61
27685;BME280;46113;50.130;8.526;2023-04-27T07:10:34;99391.63;;;7.76;42.60
27685;BME280;46113;50.130;8.526;2023-04-27T07:13:09;99385.63;;;8.70;41.21
27685;BME280;46113;50.130;8.526;2023-04-27T07:15:41;99396.16;;;8.31;42.02
27685;BME280;46113;50.130;8.526;2023-04-27T07:18:10;99396.69;;;8.59;42.00
27685;BME280;46113;50.130;8.526;2023-04-27T07:20:43;99397.53;;;7.81;42.22
27685;BME280;46113;50.130;8.526;2023-04-27T07:23:14;99393.06;;;8.02;42.75
27685;BME280;46113;50.130;8.526;2023-04-27T07:25:42;99399.34;;;8.00;42.42
27685;BME280;46113;50.130;8.526;2023-04-27T07:28:11;99391.91;;;8.67;42.12
27685;BME280;46113;50.130;8.526;2023-04-27T07:30:38;99393.09;;;8.21;42.33
27685;BME280;46113;50.130;8.526;2023-04-27T07:33:08;99393.69;;;8.47;41.51
27685;BME280;46113;50.130;8.526;2023-04-27T07:35:35;99392.69;;;8.50;42.08
27685;BME280;46113;50.130;8.526;2023-04-27T07:38:06;99395.75;;;8.97;41.03
27685;BME280;46113;50.130;8.526;2023-04-27T07:40:41;99394.69;;;9.01;39.43
27685;BME280;46113;50.130;8.526;2023-04-27T07:43:10;99400.06;;;9.35;41.11
27685;BME280;46113;50.130;8.526;2023-04-27T07:45:37;99396.50;;;8.23;40.31
27685;BME280;46113;50.130;8.526;2023-04-27T07:50:50;99390.97;;;9.23;39.29
27685;BME280;46113;50.130;8.526;2023-04-27T07:53:20;99385.25;;;10.17;39.42
27685;BME280;46113;50.130;8.526;2023-04-27T07:55:47;99388.50;;;10.55;38.05
27685;BME280;46113;50.130;8.526;2023-04-27T07:58:14;99388.41;;;10.08;37.62
27685;BME280;46113;50.130;8.526;2023-04-27T08:00:45;99390.28;;;10.86;36.43
27685;BME280;46113;50.130;8.526;2023-04-27T08:03:14;99382.84;;;11.40;36.70
27685;BME280;46113;50.130;8.526;2023-04-27T08:06:01;99382.50;;;11.90;36.52
27685;BME280;46113;50.130;8.526;2023-04-27T08:08:38;99380.16;;;12.14;34.19
27685;BME280;46113;50.130;8.526;2023-04-27T08:11:12;99370.53;;;12.55;32.78
27685;BME280;46113;50.130;8.526;2023-04-27T08:13:39;99381.53;;;11.62;35.08
27685;BME280;46113;50.130;8.526;2023-04-27T08:16:06;99377.13;;;12.63;34.39
27685;BME280;46113;50.130;8.526;2023-04-27T08:18:33;99376.06;;;12.93;34.52
27685;BME280;46113;50.130;8.526;2023-04-27T08:21:00;99372.53;;;12.79;35.25
27685;BME280;46113;50.130;8.526;2023-04-27T08:23:28;99373.88;;;14.18;31.20
27685;BME280;46113;50.130;8.526;2023-04-27T08:25:55;99369.94;;;14.11;31.97
27685;BME280;46113;50.130;8.526;2023-04-27T08:28:22;99360.03;;;14.26;32.38
27685;BME280;46113;50.130;8.526;2023-04-27T08:30:49;99357.44;;;14.86;29.09
27685;BME280;46113;50.130;8.526;2023-04-27T08:33:17;99360.47;;;14.20;31.11
27685;BME280;46113;50.130;8.526;2023-04-27T08:35:44;99356.47;;;13.88;33.14
27685;BME280;46113;50.130;8.526;2023-04-27T08:38:11;99349.31;;;15.59;30.19
27685;BME280;46113;50.130;8.526;2023-04-27T08:40:42;99346.19;;;16.34;29.06
27685;BME280;46113;50.130;8.526;2023-04-27T08:43:09;99349.84;;;16.22;28.38
27685;BME280;46113;50.130;8.526;2023-04-27T08:45:38;99353.19;;;14.83;28.66
27685;BME280;46113;50.130;8.526;2023-04-27T08:48:12;99354.38;;;15.40;28.52
27685;BME280;46113;50.130;8.526;2023-04-27T08:50:43;99347.75;;;13.73;31.68
27685;BME280;46113;50.130;8.526;2023-04-27T08:53:20;99352.94;;;14.13;29.66
27685;BME280;46113;50.130;8.526;2023-04-27T08:55:51;99348.03;;;12.89;33.08
27685;BME280;46113;50.130;8.526;2023-04-27T09:01:35;99343.41;;;11.64;32.57
27685;BME280;46113;50.130;8.526;2023-04-27T09:04:02;99340.94;;;13.69;32.84
27685;BME280;46113;50.130;8.526;2023-04-27T09:06:31;99341.75;;;14.45;30.17
27685;BME280;46113;50.130;8.526;2023-04-27T09:08:58;99343.38;;;15.56;28.90
27685;BME280;46113;50.130;8.526;2023-04-27T09:11:30;99337.16;;;13.97;30.58
27685;BME280;46113;50.130;8.526;2023-04-27T09:14:01;99342.84;;;14.92;29.37
27685;BME280;46113;50.130;8.526;2023-04-27T09:16:29;99339.88;;;13.58;30.27
27685;BME280;46113;50.130;8.526;2023-04-27T09:18:57;99344.75;;;13.64;31.27
27685;BME280;46113;50.130;8.526;2023-04-27T09:21:26;99333.34;;;14.14;29.89
27685;BME280;46113;50.130;8.526;2023-04-27T09:23:57;99335.50;;;13.31;31.62
27685;BME280;46113;50.130;8.526;2023-04-27T09:26:26;99334.28;;;12.69;32.38
27685;BME280;46113;50.130;8.526;2023-04-27T09:28:54;99330.31;;;12.62;31.22
27685;BME280;46113;50.130;8.526;2023-04-27T09:31:34;99328.94;;;12.14;31.60
27685;BME280;46113;50.130;8.526;2023-04-27T09:37:32;99325.47;;;12.68;33.11
27685;BME280;46113;50.130;8.526;2023-04-27T09:40:01;99323.13;;;13.04;31.30
27685;BME280;46113;50.130;8.526;2023-04-27T09:42:28;99315.56;;;12.15;32.77
27685;BME280;46113;50.130;8.526;2023-04-27T09:44:55;99321.44;;;12.48;31.29
27685;BME280;46113;50.130;8.526;2023-04-27T09:47:23;99313.75;;;12.58;30.73
27685;BME280;46113;50.130;8.526;2023-04-27T09:49:50;99317.06;;;12.62;30.69
27685;BME280;46113;50.130;8.526;2023-04-27T09:52:17;99307.59;;;12.15;33.48
27685;BME280;46113;50.130;8.526;2023-04-27T09:54:45;99306.84;;;12.96;30.91
27685;BME280;46113;50.130;8.526;2023-04-27T09:57:50;99299.00;;;12.12;33.23
27685;BME280;46113;50.130;8.526;2023-04-27T10:00:40;99303.44;;;12.26;32.75
27685;BME280;46113;50.130;8.526;2023-04-27T10:03:26;99308.47;;;12.16;33.10
27685;BME280;46113;50.130;8.526;2023-04-27T10:08:35;99304.81;;;12.86;31.83
27685;BME280;46113;50.130;8.526;2023-04-27T10:11:32;99303.16;;;12.01;32.23
27685;BME280;46113;50.130;8.526;2023-04-27T10:14:05;99305.53;;;12.89;32.49
27685;BME280;46113;50.130;8.526;2023-04-27T10:16:49;99301.50;;;12.42;31.40
27685;BME280;46113;50.130;8.526;2023-04-27T10:19:16;99296.25;;;12.55;32.69
27685;BME280;46113;50.130;8.526;2023-04-27T10:22:10;99296.59;;;12.36;33.29
27685;BME280;46113;50.130;8.526;2023-04-27T10:24:41;99295.13;;;12.72;31.97
27685;BME280;46113;50.130;8.526;2023-04-27T10:27:10;99294.44;;;12.28;32.79
27685;BME280;46113;50.130;8.526;2023-04-27T10:29:43;99290.63;;;12.60;31.29
27685;BME280;46113;50.130;8.526;2023-04-27T10:32:12;99283.44;;;12.35;31.38
27685;BME280;46113;50.130;8.526;2023-04-27T10:34:40;99286.59;;;12.54;31.84
27685;BME280;46113;50.130;8.526;2023-04-27T10:37:10;99283.06;;;12.54;32.22
27685;BME280;46113;50.130;8.526;2023-04-27T10:39:39;99284.56;;;12.58;31.77
27685;BME280;46113;50.130;8.526;2023-04-27T10:42:25;99289.66;;;12.06;32.44
27685;BME280;46113;50.130;8.526;2023-04-27T10:44:57;99298.19;;;11.82;32.21
27685;BME280;46113;50.130;8.526;2023-04-27T10:47:43;99297.69;;;11.75;32.55
27685;BME280;46113;50.130;8.526;2023-04-27T10:50:14;99294.22;;;11.60;32.82
27685;BME280;46113;50.130;8.526;2023-04-27T10:55:58;99288.72;;;11.49;33.69
27685;BME280;46113;50.130;8.526;2023-04-27T10:58:25;99284.38;;;11.48;33.31
27685;BME280;46113;50.130;8.526;2023-04-27T11:01:10;99277.44;;;11.31;33.25
27685;BME280;46113;50.130;8.526;2023-04-27T11:03:38;99281.22;;;10.81;34.44
27685;BME280;46113;50.130;8.526;2023-04-27T11:06:05;99278.41;;;11.59;33.04
27685;BME280;46113;50.130;8.526;2023-04-27T11:08:32;99275.13;;;11.55;34.72
27685;BME280;46113;50.130;8.526;2023-04-27T11:11:04;99266.78;;;11.76;32.27
27685;BME280;46113;50.130;8.526;2023-04-27T11:13:32;99270.06;;;11.94;32.33
27685;BME280;46113;50.130;8.526;2023-04-27T11:16:24;99279.81;;;12.36;31.51
27685;BME280;46113;50.130;8.526;2023-04-27T11:18:51;99273.94;;;12.58;32.06
27685;BME280;46113;50.130;8.526;2023-04-27T11:21:18;99267.28;;;12.10;32.67
27685;BME280;46113;50.130;8.526;2023-04-27T11:23:48;99263.22;;;12.46;31.31
27685;BME280;46113;50.130;8.526;2023-04-27T11:26:20;99264.69;;;12.51;30.62
27685;BME280;46113;50.130;8.526;2023-04-27T11:29:02;99257.97;;;12.32;31.97
27685;BME280;46113;50.130;8.526;2023-04-27T11:35:56;99257.69;;;12.50;31.28
27685;BME280;46113;50.130;8.526;2023-04-27T11:38:23;99254.28;;;12.20;31.19
27685;BME280;46113;50.130;8.526;2023-04-27T11:41:04;99254.06;;;12.51;31.70
27685;BME280;46113;50.130;8.526;2023-04-27T11:43:32;99254.44;;;13.12;31.36
27685;BME280;46113;50.130;8.526;2023-04-27T11:46:03;99250.72;;;13.28;30.98
27685;BME280;46113;50.130;8.526;2023-04-27T11:48:35;99256.31;;;13.62;29.62
27685;BME280;46113;50.130;8.526;2023-04-27T11:51:03;99253.16;;;13.18;29.27
27685;BME280;46113;50.130;8.526;2023-04-27T11:53:37;99251.34;;;13.32;30.36
27685;BME280;46113;50.130;8.526;2023-04-27T11:56:06;99253.13;;;12.92;30.72
27685;BME280;46113;50.130;8.526;2023-04-27T11:58:38;99243.06;;;13.23;31.19
27685;BME280;46113;50.130;8.526;2023-04-27T12:01:09;99239.88;;;13.18;31.57
27685;BME280;46113;50.130;8.526;2023-04-27T12:03:40;99236.47;;;12.63;33.55
27685;BME280;46113;50.130;8.526;2023-04-27T12:06:07;99247.09;;;13.42;31.69
27685;BME280;46113;50.130;8.526;2023-04-27T12:08:55;99247.00;;;13.31;30.54
27685;BME280;46113;50.130;8.526;2023-04-27T12:11:26;99238.88;;;12.80;31.38
27685;BME280;46113;50.130;8.526;2023-04-27T12:13:55;99243.00;;;12.71;30.49
27685;BME280;46113;50.130;8.526;2023-04-27T12:16:22;99238.88;;;11.98;32.03
27685;BME280;46113;50.130;8.526;2023-04-27T12:18:50;99230.25;;;12.64;31.48
27685;BME280;46113;50.130;8.526;2023-04-27T12:21:17;99234.75;;;13.02;31.15
27685;BME280;46113;50.130;8.526;2023-04-27T12:23:44;99234.75;;;12.49;31.42
27685;BME280;46113;50.130;8.526;2023-04-27T12:26:11;99229.50;;;11.21;32.74
27685;BME280;46113;50.130;8.526;2023-04-27T12:28:40;99226.50;;;11.98;32.91
27685;BME280;46113;50.130;8.526;2023-04-27T12:31:07;99228.47;;;12.37;33.86
27685;BME280;46113;50.130;8.526;2023-04-27T12:33:38;99234.09;;;12.32;31.70
27685;BME280;46113;50.130;8.526;2023-04-27T12:36:06;99240.09;;;12.62;31.50
27685;BME280;46113;50.130;8.526;2023-04-27T12:41:30;99231.44;;;12.04;32.08
27685;BME280;46113;50.130;8.526;2023-04-27T12:43:57;99229.13;;;12.53;31.94
27685;BME280;46113;50.130;8.526;2023-04-27T12:46:26;99238.44;;;12.33;32.36
27685;BME280;46113;50.130;8.526;2023-04-27T12:48:53;99229.19;;;12.66;32.16
27685;BME280;46113;50.130;8.526;2023-04-27T12:51:22;99218.41;;;12.14;33.02
27685;BME280;46113;50.130;8.526;2023-04-27T12:53:49;99210.94;;;12.34;32.54
27685;BME280;46113;50.130;8.526;2023-04-27T12:56:16;99211.94;;;12.46;32.08
27685;BME280;46113;50.130;8.526;2023-04-27T12:58:43;99213.97;;;12.55;33.63
27685;BME280;46113;50.130;8.526;2023-04-27T13:01:11;99212.69;;;13.15;31.78
27685;BME280;46113;50.130;8.526;2023-04-27T13:03:41;99213.94;;;12.96;32.56
27685;BME280;46113;50.130;8.526;2023-04-27T13:06:09;99208.78;;;12.67;30.90
27685;BME280;46113;50.130;8.526;2023-04-27T13:08:36;99204.25;;;12.69;31.50
27685;BME280;46113;50.130;8.526;2023-04-27T13:11:03;99194.66;;;12.53;32.82
27685;BME280;46113;50.130;8.526;2023-04-27T13:13:30;99202.81;;;12.50;31.81
27685;BME280;46113;50.130;8.526;2023-04-27T13:15:57;99193.94;;;12.77;33.70
27685;BME280;46113;50.130;8.526;2023-04-27T13:18:24;99200.81;;;12.54;32.55
27685;BME280;46113;50.130;8.526;2023-04-27T13:20:51;99202.22;;;12.59;31.44
27685;BME280;46113;50.130;8.526;2023-04-27T13:23:18;99199.66;;;12.58;31.89
27685;BME280;46113;50.130;8.526;2023-04-27T13:25:45;99200.53;;;12.71;32.32
27685;BME280;46113;50.130;8.526;2023-04-27T13:28:12;99191.81;;;12.69;31.83
27685;BME280;46113;50.130;8.526;2023-04-27T13:30:39;99188.72;;;12.63;32.02
27685;BME280;46113;50.130;8.526;2023-04-27T13:33:06;99195.19;;;12.18;32.08
27685;BME280;46113;50.130;8.526;2023-04-27T13:35:49;99184.47;;;12.73;31.74
27685;BME280;46113;50.130;8.526;2023-04-27T13:38:16;99178.25;;;12.61;31.50
27685;BME280;46113;50.130;8.526;2023-04-27T13:40:43;99178.94;;;12.10;31.33
27685;BME280;46113;50.130;8.526;2023-04-27T13:43:10;99177.69;;;12.15;32.52
27685;BME280;46113;50.130;8.526;2023-04-27T13:45:37;99177.78;;;12.54;31.85
27685;BME280;46113;50.130;8.526;2023-04-27T13:48:05;99179.91;;;12.49;30.90
27685;BME280;46113;50.130;8.526;2023-04-27T13:50:32;99162.16;;;12.50;31.50
27685;BME280;46113;50.130;8.526;2023-04-27T13:53:00;99174.78;;;12.05;31.45